sensor_id;sensor_type;location;lat;lon;timestamp;temperature;humidity
8248;DHT22;4164;49.844;8.830;2023-02-28T00:00:09;-1.80;99.90
8248;DHT22;4164;49.844;8.830;2023-02-28T00:02:37;-1.80;99.90
8248;DHT22;4164;49.844;8.830;2023-02-28T00:05:03;-2.00;99.90
8248;DHT22;4164;49.844;8.830;2023-02-28T00:07:30;-2.00;99.90
8248;DHT22;4164;49.844;8.830;2023-02-28T00:09:55;-2.00;99.90
8248;DHT22;4164;49.844;8.830;2023-02-28T00:12:21;-2.00;99.90
8248;DHT22;4164;49.844;8.830;2023-02-28T00:14:47;-2.10;99.90
8248;DHT22;4164;49.844;8.830;2023-02-28T00:17:12;-2.10;99.90
8248;DHT22;4164;49.844;8.830;2023-02-28T00:19:38;-2.00;99.90
8248;DHT22;4164;49.844;8.830;2023-02-28T00:22:04;-1.90;99.90
8248;DHT22;4164;49.844;8.830;2023-02-28T00:24:29;-2.00;99.90
8248;DHT22;4164;49.844;8.830;2023-02-28T00:26:55;-2.10;99.90
8248;DHT22;4164;49.844;8.830;2023-02-28T00:29:20;-2.10;99.90
8248;DHT22;4164;49.844;8.830;2023-02-28T00:31:46;-2.00;99.90
8248;DHT22;4164;49.844;8.830;2023-02-28T00:34:11;-2.10;99.90
8248;DHT22;4164;49.844;8.830;2023-02-28T00:36:37;-2.00;99.90
8248;DHT22;4164;49.844;8.830;2023-02-28T00:39:03;-2.10;99.90
8248;DHT22;4164;49.844;8.830;2023-02-28T00:41:29;-1.90;99.90
8248;DHT22;4164;49.844;8.830;2023-02-28T00:43:54;-1.80;99.90
8248;DHT22;4164;49.844;8.830;2023-02-28T00:46:20;-1.70;99.90
8248;DHT22;4164;49.844;8.830;2023-02-28T00:48:45;-1.80;99.90
8248;DHT22;4164;49.844;8.830;2023-02-28T00:51:11;-2.00;99.90
8248;DHT22;4164;49.844;8.830;2023-02-28T00:53:36;-2.10;99.90
8248;DHT22;4164;49.844;8.830;2023-02-28T00:56:02;-2.10;99.90
8248;DHT22;4164;49.844;8.830;2023-02-28T00:58:28;-2.00;99.90
8248;DHT22;4164;49.844;8.830;2023-02-28T01:00:54;-1.90;99.90
8248;DHT22;4164;49.844;8.830;2023-02-28T01:03:21;-1.90;99.90
8248;DHT22;4164;49.844;8.830;2023-02-28T01:05:50;-2.00;99.90
8248;DHT22;4164;49.844;8.830;2023-02-28T01:08:18;-2.00;99.90
8248;DHT22;4164;49.844;8.830;2023-02-28T01:10:44;-2.10;99.90
8248;DHT22;4164;49.844;8.830;2023-02-28T01:13:12;-2.30;99.90
8248;DHT22;4164;49.844;8.830;2023-02-28T01:15:39;-2.20;99.90
8248;DHT22;4164;49.844;8.830;2023-02-28T01:18:06;-2.20;99.90
8248;DHT22;4164;49.844;8.830;2023-02-28T01:20:32;-2.20;99.90
8248;DHT22;4164;49.844;8.830;2023-02-28T01:22:58;-2.10;99.90
8248;DHT22;4164;49.844;8.830;2023-02-28T01:25:23;-2.20;99.90
8248;DHT22;4164;49.844;8.830;2023-02-28T01:27:49;-2.20;99.90
8248;DHT22;4164;49.844;8.830;2023-02-28T01:30:14;-2.40;99.90
8248;DHT22;4164;49.844;8.830;2023-02-28T01:32:40;-2.40;99.90
8248;DHT22;4164;49.844;8.830;2023-02-28T01:35:06;-2.40;99.90
8248;DHT22;4164;49.844;8.830;2023-02-28T01:37:31;-2.50;99.90
8248;DHT22;4164;49.844;8.830;2023-02-28T01:39:57;-2.40;99.90
8248;DHT22;4164;49.844;8.830;2023-02-28T01:42:22;-2.40;99.90
8248;DHT22;4164;49.844;8.830;2023-02-28T01:47:38;-2.30;99.90
8248;DHT22;4164;49.844;8.830;2023-02-28T01:50:09;-2.30;99.90
8248;DHT22;4164;49.844;8.830;2023-02-28T01:52:36;-2.20;99.90
8248;DHT22;4164;49.844;8.830;2023-02-28T01:55:04;-2.00;99.90
8248;DHT22;4164;49.844;8.830;2023-02-28T01:57:35;-1.90;99.90
8248;DHT22;4164;49.844;8.830;2023-02-28T02:00:24;-1.90;99.90
8248;DHT22;4164;49.844;8.830;2023-02-28T02:02:54;-2.00;99.90
8248;DHT22;4164;49.844;8.830;2023-02-28T02:05:26;-1.90;99.90
8248;DHT22;4164;49.844;8.830;2023-02-28T02:08:00;-2.00;99.90
8248;DHT22;4164;49.844;8.830;2023-02-28T02:14:12;-1.90;99.90
8248;DHT22;4164;49.844;8.830;2023-02-28T02:17:01;-2.00;99.90
8248;DHT22;4164;49.844;8.830;2023-02-28T02:35:54;-2.50;99.90
8248;DHT22;4164;49.844;8.830;2023-02-28T02:38:27;-2.50;99.90
8248;DHT22;4164;49.844;8.830;2023-02-28T02:46:24;-2.60;99.90
8248;DHT22;4164;49.844;8.830;2023-02-28T02:48:55;-2.60;99.90
8248;DHT22;4164;49.844;8.830;2023-02-28T02:51:23;-2.60;99.90
8248;DHT22;4164;49.844;8.830;2023-02-28T02:53:59;-2.80;99.90
8248;DHT22;4164;49.844;8.830;2023-02-28T02:56:28;-2.60;99.90
8248;DHT22;4164;49.844;8.830;2023-02-28T02:59:01;-2.60;99.90
8248;DHT22;4164;49.844;8.830;2023-02-28T03:01:29;-2.80;99.90
8248;DHT22;4164;49.844;8.830;2023-02-28T03:04:23;-2.70;99.90
8248;DHT22;4164;49.844;8.830;2023-02-28T03:06:50;-3.10;99.90
8248;DHT22;4164;49.844;8.830;2023-02-28T03:09:20;-3.00;99.90
8248;DHT22;4164;49.844;8.830;2023-02-28T03:11:46;-2.80;99.90
8248;DHT22;4164;49.844;8.830;2023-02-28T03:14:25;-2.80;99.90
8248;DHT22;4164;49.844;8.830;2023-02-28T03:17:30;-2.80;99.90
8248;DHT22;4164;49.844;8.830;2023-02-28T03:23:23;-2.60;99.90
8248;DHT22;4164;49.844;8.830;2023-02-28T03:26:14;-2.70;99.90
8248;DHT22;4164;49.844;8.830;2023-02-28T03:28:59;-2.90;99.90
8248;DHT22;4164;49.844;8.830;2023-02-28T03:31:37;-3.00;99.90
8248;DHT22;4164;49.844;8.830;2023-02-28T03:34:12;-3.00;99.90
8248;DHT22;4164;49.844;8.830;2023-02-28T03:36:42;-3.00;99.90
8248;DHT22;4164;49.844;8.830;2023-02-28T03:39:16;-3.00;99.90
8248;DHT22;4164;49.844;8.830;2023-02-28T03:44:17;-2.90;99.90
8248;DHT22;4164;49.844;8.830;2023-02-28T03:46:57;-2.80;99.90
8248;DHT22;4164;49.844;8.830;2023-02-28T03:49:32;-3.10;99.90
8248;DHT22;4164;49.844;8.830;2023-02-28T03:52:01;-2.90;99.90
8248;DHT22;4164;49.844;8.830;2023-02-28T03:54:39;-2.90;99.90
8248;DHT22;4164;49.844;8.830;2023-02-28T03:57:15;-2.80;99.90
8248;DHT22;4164;49.844;8.830;2023-02-28T03:59:47;-2.90;99.90
8248;DHT22;4164;49.844;8.830;2023-02-28T04:02:14;-2.70;99.90
8248;DHT22;4164;49.844;8.830;2023-02-28T04:04:40;-2.90;99.90
8248;DHT22;4164;49.844;8.830;2023-02-28T04:07:13;-2.80;99.90
8248;DHT22;4164;49.844;8.830;2023-02-28T04:09:39;-2.70;99.90
8248;DHT22;4164;49.844;8.830;2023-02-28T04:12:05;-2.70;99.90
8248;DHT22;4164;49.844;8.830;2023-02-28T04:14:31;-2.70;99.90
8248;DHT22;4164;49.844;8.830;2023-02-28T04:16:56;-2.50;99.90
8248;DHT22;4164;49.844;8.830;2023-02-28T04:19:22;-2.90;99.90
8248;DHT22;4164;49.844;8.830;2023-02-28T04:21:50;-2.30;99.90
8248;DHT22;4164;49.844;8.830;2023-02-28T04:24:21;-2.80;99.90
8248;DHT22;4164;49.844;8.830;2023-02-28T04:26:50;-2.90;99.90
8248;DHT22;4164;49.844;8.830;2023-02-28T04:29:27;-2.50;99.90
8248;DHT22;4164;49.844;8.830;2023-02-28T04:31:54;-2.80;99.90
8248;DHT22;4164;49.844;8.830;2023-02-28T04:34:20;-3.10;99.90
8248;DHT22;4164;49.844;8.830;2023-02-28T04:36:47;-3.20;99.90
8248;DHT22;4164;49.844;8.830;2023-02-28T04:39:15;-3.30;99.90
8248;DHT22;4164;49.844;8.830;2023-02-28T04:41:41;-3.30;99.90
8248;DHT22;4164;49.844;8.830;2023-02-28T04:44:06;-3.30;99.90
8248;DHT22;4164;49.844;8.830;2023-02-28T04:46:32;-3.10;99.90
8248;DHT22;4164;49.844;8.830;2023-02-28T04:48:57;-2.30;99.90
8248;DHT22;4164;49.844;8.830;2023-02-28T04:51:24;-2.20;99.90
8248;DHT22;4164;49.844;8.830;2023-02-28T04:53:49;-2.90;99.90
8248;DHT22;4164;49.844;8.830;2023-02-28T04:56:16;-2.90;99.90
8248;DHT22;4164;49.844;8.830;2023-02-28T04:58:43;-2.70;99.90
8248;DHT22;4164;49.844;8.830;2023-02-28T05:01:24;-2.90;99.90
8248;DHT22;4164;49.844;8.830;2023-02-28T05:03:51;-2.90;99.90
8248;DHT22;4164;49.844;8.830;2023-02-28T05:06:21;-2.50;99.90
8248;DHT22;4164;49.844;8.830;2023-02-28T05:08:46;-2.90;99.90
8248;DHT22;4164;49.844;8.830;2023-02-28T05:11:16;-2.80;99.90
8248;DHT22;4164;49.844;8.830;2023-02-28T05:13:42;-2.90;99.90
8248;DHT22;4164;49.844;8.830;2023-02-28T05:16:08;-2.80;99.90
8248;DHT22;4164;49.844;8.830;2023-02-28T05:18:34;-2.50;99.90
8248;DHT22;4164;49.844;8.830;2023-02-28T05:21:00;-2.80;99.90
8248;DHT22;4164;49.844;8.830;2023-02-28T05:23:27;-2.70;99.90
8248;DHT22;4164;49.844;8.830;2023-02-28T05:25:53;-2.70;99.90
8248;DHT22;4164;49.844;8.830;2023-02-28T05:28:19;-2.80;99.90
8248;DHT22;4164;49.844;8.830;2023-02-28T05:30:45;-2.80;99.90
8248;DHT22;4164;49.844;8.830;2023-02-28T05:33:12;-2.70;99.90
8248;DHT22;4164;49.844;8.830;2023-02-28T05:35:41;-2.80;99.90
8248;DHT22;4164;49.844;8.830;2023-02-28T05:38:08;-2.80;99.90
8248;DHT22;4164;49.844;8.830;2023-02-28T05:40:34;-2.00;99.90
8248;DHT22;4164;49.844;8.830;2023-02-28T05:42:59;-2.80;99.90
8248;DHT22;4164;49.844;8.830;2023-02-28T05:45:25;-2.90;99.90
8248;DHT22;4164;49.844;8.830;2023-02-28T05:47:54;-2.90;99.90
8248;DHT22;4164;49.844;8.830;2023-02-28T05:50:20;-3.20;99.90
8248;DHT22;4164;49.844;8.830;2023-02-28T05:52:52;-2.90;99.90
8248;DHT22;4164;49.844;8.830;2023-02-28T05:55:18;-3.40;99.90
8248;DHT22;4164;49.844;8.830;2023-02-28T05:57:44;-3.00;99.90
8248;DHT22;4164;49.844;8.830;2023-02-28T06:00:10;-3.00;99.90
8248;DHT22;4164;49.844;8.830;2023-02-28T06:02:38;-2.90;99.90
8248;DHT22;4164;49.844;8.830;2023-02-28T06:05:04;-2.90;99.90
8248;DHT22;4164;49.844;8.830;2023-02-28T06:07:29;-2.90;99.90
8248;DHT22;4164;49.844;8.830;2023-02-28T06:09:55;-2.90;99.90
8248;DHT22;4164;49.844;8.830;2023-02-28T06:12:20;-2.90;99.90
8248;DHT22;4164;49.844;8.830;2023-02-28T06:14:46;-3.00;99.90
8248;DHT22;4164;49.844;8.830;2023-02-28T06:17:11;-3.20;99.90
8248;DHT22;4164;49.844;8.830;2023-02-28T06:19:37;-2.70;99.90
8248;DHT22;4164;49.844;8.830;2023-02-28T06:22:04;-3.10;99.90
8248;DHT22;4164;49.844;8.830;2023-02-28T06:24:29;-3.00;99.90
8248;DHT22;4164;49.844;8.830;2023-02-28T06:26:56;-3.00;99.90
8248;DHT22;4164;49.844;8.830;2023-02-28T06:29:24;-3.20;99.90
8248;DHT22;4164;49.844;8.830;2023-02-28T06:31:50;-2.70;99.90
8248;DHT22;4164;49.844;8.830;2023-02-28T06:34:15;-2.50;99.90
8248;DHT22;4164;49.844;8.830;2023-02-28T06:36:42;-3.20;99.90
8248;DHT22;4164;49.844;8.830;2023-02-28T06:39:08;-2.90;99.90
8248;DHT22;4164;49.844;8.830;2023-02-28T06:41:35;-3.10;99.90
8248;DHT22;4164;49.844;8.830;2023-02-28T06:44:13;-2.90;99.90
8248;DHT22;4164;49.844;8.830;2023-02-28T06:46:41;-2.80;99.90
8248;DHT22;4164;49.844;8.830;2023-02-28T06:49:07;-2.90;99.90
8248;DHT22;4164;49.844;8.830;2023-02-28T06:51:37;-2.80;99.90
8248;DHT22;4164;49.844;8.830;2023-02-28T06:54:03;-2.90;99.90
8248;DHT22;4164;49.844;8.830;2023-02-28T06:56:29;-2.80;99.90
8248;DHT22;4164;49.844;8.830;2023-02-28T06:58:55;-2.60;99.90
8248;DHT22;4164;49.844;8.830;2023-02-28T07:01:22;-2.50;99.90
8248;DHT22;4164;49.844;8.830;2023-02-28T07:03:49;-2.40;99.90
8248;DHT22;4164;49.844;8.830;2023-02-28T07:06:18;-2.20;99.90
8248;DHT22;4164;49.844;8.830;2023-02-28T07:08:43;-2.20;99.90
8248;DHT22;4164;49.844;8.830;2023-02-28T07:11:09;-2.00;99.90
8248;DHT22;4164;49.844;8.830;2023-02-28T07:13:35;-1.80;99.90
8248;DHT22;4164;49.844;8.830;2023-02-28T07:16:03;-1.80;99.90
8248;DHT22;4164;49.844;8.830;2023-02-28T07:18:29;-1.60;99.90
8248;DHT22;4164;49.844;8.830;2023-02-28T07:20:56;-1.50;99.90
8248;DHT22;4164;49.844;8.830;2023-02-28T07:23:21;-1.30;99.90
8248;DHT22;4164;49.844;8.830;2023-02-28T07:25:47;-1.30;99.90
8248;DHT22;4164;49.844;8.830;2023-02-28T07:28:13;-1.20;99.90
8248;DHT22;4164;49.844;8.830;2023-02-28T07:30:39;-1.10;99.90
8248;DHT22;4164;49.844;8.830;2023-02-28T07:33:05;-1.10;99.90
8248;DHT22;4164;49.844;8.830;2023-02-28T07:35:31;-1.00;99.90
8248;DHT22;4164;49.844;8.830;2023-02-28T07:38:00;-0.80;99.90
8248;DHT22;4164;49.844;8.830;2023-02-28T07:40:26;-0.70;99.90
8248;DHT22;4164;49.844;8.830;2023-02-28T07:42:52;-0.50;99.90
8248;DHT22;4164;49.844;8.830;2023-02-28T07:45:18;-0.60;99.90
8248;DHT22;4164;49.844;8.830;2023-02-28T07:47:44;-0.50;99.90
8248;DHT22;4164;49.844;8.830;2023-02-28T07:50:13;-0.50;99.90
8248;DHT22;4164;49.844;8.830;2023-02-28T07:52:39;-0.40;99.90
8248;DHT22;4164;49.844;8.830;2023-02-28T07:55:06;-0.10;99.90
8248;DHT22;4164;49.844;8.830;2023-02-28T07:57:33;0.00;99.90
8248;DHT22;4164;49.844;8.830;2023-02-28T07:59:58;0.10;99.90
8248;DHT22;4164;49.844;8.830;2023-02-28T08:02:24;0.30;99.90
8248;DHT22;4164;49.844;8.830;2023-02-28T08:04:50;0.40;99.90
8248;DHT22;4164;49.844;8.830;2023-02-28T08:07:16;0.50;99.90
8248;DHT22;4164;49.844;8.830;2023-02-28T08:09:42;0.40;99.90
8248;DHT22;4164;49.844;8.830;2023-02-28T08:12:09;0.50;99.90
8248;DHT22;4164;49.844;8.830;2023-02-28T08:14:36;0.50;99.90
8248;DHT22;4164;49.844;8.830;2023-02-28T08:17:02;0.70;99.90
8248;DHT22;4164;49.844;8.830;2023-02-28T08:19:28;0.70;99.90
8248;DHT22;4164;49.844;8.830;2023-02-28T08:21:54;0.70;99.90
8248;DHT22;4164;49.844;8.830;2023-02-28T08:24:20;0.90;99.90
8248;DHT22;4164;49.844;8.830;2023-02-28T08:26:45;1.00;99.90
8248;DHT22;4164;49.844;8.830;2023-02-28T08:29:11;1.10;99.90
8248;DHT22;4164;49.844;8.830;2023-02-28T08:31:37;1.40;99.90
8248;DHT22;4164;49.844;8.830;2023-02-28T08:34:07;1.40;99.90
8248;DHT22;4164;49.844;8.830;2023-02-28T08:36:32;1.60;99.90
8248;DHT22;4164;49.844;8.830;2023-02-28T08:38:58;1.50;99.90
8248;DHT22;4164;49.844;8.830;2023-02-28T08:41:25;1.60;99.90
8248;DHT22;4164;49.844;8.830;2023-02-28T08:43:51;1.90;99.90
8248;DHT22;4164;49.844;8.830;2023-02-28T08:46:17;1.80;99.90
8248;DHT22;4164;49.844;8.830;2023-02-28T08:48:43;1.90;99.90
8248;DHT22;4164;49.844;8.830;2023-02-28T08:51:15;2.00;99.90
8248;DHT22;4164;49.844;8.830;2023-02-28T08:53:46;2.00;99.90
8248;DHT22;4164;49.844;8.830;2023-02-28T08:56:15;2.00;99.90
8248;DHT22;4164;49.844;8.830;2023-02-28T08:58:42;2.10;99.90
8248;DHT22;4164;49.844;8.830;2023-02-28T09:01:13;2.30;99.20
8248;DHT22;4164;49.844;8.830;2023-02-28T09:03:39;2.30;98.10
8248;DHT22;4164;49.844;8.830;2023-02-28T09:06:07;2.50;99.20
8248;DHT22;4164;49.844;8.830;2023-02-28T09:08:32;2.90;99.00
8248;DHT22;4164;49.844;8.830;2023-02-28T09:10:58;3.10;98.60
8248;DHT22;4164;49.844;8.830;2023-02-28T09:13:26;3.10;97.20
8248;DHT22;4164;49.844;8.830;2023-02-28T09:15:52;3.00;95.10
8248;DHT22;4164;49.844;8.830;2023-02-28T09:18:18;3.10;95.40
8248;DHT22;4164;49.844;8.830;2023-02-28T09:20:44;3.10;95.60
8248;DHT22;4164;49.844;8.830;2023-02-28T09:23:11;3.20;95.40
8248;DHT22;4164;49.844;8.830;2023-02-28T09:25:37;3.30;95.30
8248;DHT22;4164;49.844;8.830;2023-02-28T09:28:03;3.40;93.50
8248;DHT22;4164;49.844;8.830;2023-02-28T09:30:30;3.40;93.50
8248;DHT22;4164;49.844;8.830;2023-02-28T09:32:56;3.30;92.40
8248;DHT22;4164;49.844;8.830;2023-02-28T09:35:23;3.20;92.80
8248;DHT22;4164;49.844;8.830;2023-02-28T09:37:50;3.30;93.00
8248;DHT22;4164;49.844;8.830;2023-02-28T09:40:17;3.40;92.00
8248;DHT22;4164;49.844;8.830;2023-02-28T09:42:47;3.60;92.60
8248;DHT22;4164;49.844;8.830;2023-02-28T09:45:36;3.80;92.40
8248;DHT22;4164;49.844;8.830;2023-02-28T09:48:16;4.00;91.60
8248;DHT22;4164;49.844;8.830;2023-02-28T09:50:49;4.60;92.30
8248;DHT22;4164;49.844;8.830;2023-02-28T09:53:26;4.60;90.90
8248;DHT22;4164;49.844;8.830;2023-02-28T09:56:07;4.90;89.10
8248;DHT22;4164;49.844;8.830;2023-02-28T09:58:46;4.90;85.60
8248;DHT22;4164;49.844;8.830;2023-02-28T10:04:05;5.00;86.80
8248;DHT22;4164;49.844;8.830;2023-02-28T10:06:39;5.20;84.80
8248;DHT22;4164;49.844;8.830;2023-02-28T10:09:13;5.50;84.00
8248;DHT22;4164;49.844;8.830;2023-02-28T10:11:40;5.50;82.40
8248;DHT22;4164;49.844;8.830;2023-02-28T10:14:33;5.80;85.10
8248;DHT22;4164;49.844;8.830;2023-02-28T10:19:31;5.50;79.40
8248;DHT22;4164;49.844;8.830;2023-02-28T10:22:03;5.50;76.60
8248;DHT22;4164;49.844;8.830;2023-02-28T10:24:40;5.20;77.80
8248;DHT22;4164;49.844;8.830;2023-02-28T10:27:23;5.70;76.80
8248;DHT22;4164;49.844;8.830;2023-02-28T10:29:51;5.80;76.50
8248;DHT22;4164;49.844;8.830;2023-02-28T10:32:25;7.30;74.80
8248;DHT22;4164;49.844;8.830;2023-02-28T10:37:44;10.10;60.80
8248;DHT22;4164;49.844;8.830;2023-02-28T10:42:59;10.60;57.70
8248;DHT22;4164;49.844;8.830;2023-02-28T10:45:28;9.30;56.70
8248;DHT22;4164;49.844;8.830;2023-02-28T10:50:50;11.80;53.20
8248;DHT22;4164;49.844;8.830;2023-02-28T10:58:50;9.90;50.60
8248;DHT22;4164;49.844;8.830;2023-02-28T11:01:43;9.80;52.10
8248;DHT22;4164;49.844;8.830;2023-02-28T11:06:57;9.00;54.60
8248;DHT22;4164;49.844;8.830;2023-02-28T11:11:57;7.70;53.30
8248;DHT22;4164;49.844;8.830;2023-02-28T11:14:28;6.30;55.80
8248;DHT22;4164;49.844;8.830;2023-02-28T11:17:03;6.40;58.10
8248;DHT22;4164;49.844;8.830;2023-02-28T11:19:40;7.40;56.40
8248;DHT22;4164;49.844;8.830;2023-02-28T11:22:09;10.00;54.60
8248;DHT22;4164;49.844;8.830;2023-02-28T11:24:45;13.10;51.20
8248;DHT22;4164;49.844;8.830;2023-02-28T11:29:55;11.00;46.70
8248;DHT22;4164;49.844;8.830;2023-02-28T11:32:23;10.80;49.10
8248;DHT22;4164;49.844;8.830;2023-02-28T11:35:27;10.70;47.50
8248;DHT22;4164;49.844;8.830;2023-02-28T11:37:54;12.00;47.00
8248;DHT22;4164;49.844;8.830;2023-02-28T11:40:29;9.80;49.50
8248;DHT22;4164;49.844;8.830;2023-02-28T11:43:16;7.70;51.80
8248;DHT22;4164;49.844;8.830;2023-02-28T11:52:04;7.60;54.20
8248;DHT22;4164;49.844;8.830;2023-02-28T11:54:56;7.10;55.50
8248;DHT22;4164;49.844;8.830;2023-02-28T11:57:33;8.00;54.80
8248;DHT22;4164;49.844;8.830;2023-02-28T12:00:10;9.60;54.80
8248;DHT22;4164;49.844;8.830;2023-02-28T12:08:11;8.20;53.20
8248;DHT22;4164;49.844;8.830;2023-02-28T12:13:37;10.70;53.90
8248;DHT22;4164;49.844;8.830;2023-02-28T12:27:07;15.50;43.80
8248;DHT22;4164;49.844;8.830;2023-02-28T12:30:01;15.20;42.30
8248;DHT22;4164;49.844;8.830;2023-02-28T12:32:35;15.10;42.60
8248;DHT22;4164;49.844;8.830;2023-02-28T12:35:11;15.40;43.80
8248;DHT22;4164;49.844;8.830;2023-02-28T12:38:34;15.60;40.10
8248;DHT22;4164;49.844;8.830;2023-02-28T12:40:53;15.70;40.50
8248;DHT22;4164;49.844;8.830;2023-02-28T12:43:21;15.90;39.20
8248;DHT22;4164;49.844;8.830;2023-02-28T12:45:56;15.50;40.30
8248;DHT22;4164;49.844;8.830;2023-02-28T12:48:37;14.40;42.10
8248;DHT22;4164;49.844;8.830;2023-02-28T12:51:06;13.30;41.70
8248;DHT22;4164;49.844;8.830;2023-02-28T12:53:42;13.20;42.50
8248;DHT22;4164;49.844;8.830;2023-02-28T12:56:33;13.40;43.10
8248;DHT22;4164;49.844;8.830;2023-02-28T12:59:13;14.70;42.40
8248;DHT22;4164;49.844;8.830;2023-02-28T13:04:46;14.00;41.00
8248;DHT22;4164;49.844;8.830;2023-02-28T13:10:00;13.70;39.60
8248;DHT22;4164;49.844;8.830;2023-02-28T13:12:27;12.10;40.30
8248;DHT22;4164;49.844;8.830;2023-02-28T13:15:13;13.20;42.10
8248;DHT22;4164;49.844;8.830;2023-02-28T13:17:42;14.90;40.30
8248;DHT22;4164;49.844;8.830;2023-02-28T13:20:25;14.00;38.40
8248;DHT22;4164;49.844;8.830;2023-02-28T13:22:53;13.30;42.10
8248;DHT22;4164;49.844;8.830;2023-02-28T13:27:52;11.10;42.20
8248;DHT22;4164;49.844;8.830;2023-02-28T13:33:25;12.90;41.90
8248;DHT22;4164;49.844;8.830;2023-02-28T13:39:02;13.90;40.90
8248;DHT22;4164;49.844;8.830;2023-02-28T13:44:05;13.10;41.20
8248;DHT22;4164;49.844;8.830;2023-02-28T13:46:32;12.50;41.10
8248;DHT22;4164;49.844;8.830;2023-02-28T13:55:09;12.30;42.70
8248;DHT22;4164;49.844;8.830;2023-02-28T14:00:59;10.80;42.90
8248;DHT22;4164;49.844;8.830;2023-02-28T14:08:48;7.80;46.60
8248;DHT22;4164;49.844;8.830;2023-02-28T14:11:28;7.40;48.20
8248;DHT22;4164;49.844;8.830;2023-02-28T14:13:54;7.10;48.20
8248;DHT22;4164;49.844;8.830;2023-02-28T14:16:25;6.60;49.70
8248;DHT22;4164;49.844;8.830;2023-02-28T14:19:01;6.30;49.80
8248;DHT22;4164;49.844;8.830;2023-02-28T14:21:34;6.30;50.80
8248;DHT22;4164;49.844;8.830;2023-02-28T14:24:38;6.20;51.50
8248;DHT22;4164;49.844;8.830;2023-02-28T14:32:33;6.20;53.90
8248;DHT22;4164;49.844;8.830;2023-02-28T14:37:51;6.10;52.60
8248;DHT22;4164;49.844;8.830;2023-02-28T14:40:27;6.10;53.10
8248;DHT22;4164;49.844;8.830;2023-02-28T14:43:00;6.20;53.60
8248;DHT22;4164;49.844;8.830;2023-02-28T14:45:29;6.20;54.20
8248;DHT22;4164;49.844;8.830;2023-02-28T14:47:56;6.20;51.60
8248;DHT22;4164;49.844;8.830;2023-02-28T14:50:27;6.50;53.60
8248;DHT22;4164;49.844;8.830;2023-02-28T14:52:54;6.10;53.70
8248;DHT22;4164;49.844;8.830;2023-02-28T14:55:25;6.00;53.50
8248;DHT22;4164;49.844;8.830;2023-02-28T14:57:56;6.10;54.10
8248;DHT22;4164;49.844;8.830;2023-02-28T15:00:31;6.20;54.00
8248;DHT22;4164;49.844;8.830;2023-02-28T15:02:59;6.00;52.20
8248;DHT22;4164;49.844;8.830;2023-02-28T15:05:33;6.10;53.50
8248;DHT22;4164;49.844;8.830;2023-02-28T15:08:16;6.10;53.70
8248;DHT22;4164;49.844;8.830;2023-02-28T15:11:22;6.20;54.50
8248;DHT22;4164;49.844;8.830;2023-02-28T15:13:50;6.10;53.00
8248;DHT22;4164;49.844;8.830;2023-02-28T15:16:39;6.00;52.10
8248;DHT22;4164;49.844;8.830;2023-02-28T15:19:27;5.90;52.30
8248;DHT22;4164;49.844;8.830;2023-02-28T15:22:12;5.90;54.30
8248;DHT22;4164;49.844;8.830;2023-02-28T15:24:46;5.90;53.50
8248;DHT22;4164;49.844;8.830;2023-02-28T15:27:27;5.90;53.30
8248;DHT22;4164;49.844;8.830;2023-02-28T15:29:59;5.90;52.70
8248;DHT22;4164;49.844;8.830;2023-02-28T15:32:36;5.80;52.50
8248;DHT22;4164;49.844;8.830;2023-02-28T15:35:40;5.80;55.50
8248;DHT22;4164;49.844;8.830;2023-02-28T15:38:16;5.90;55.30
8248;DHT22;4164;49.844;8.830;2023-02-28T15:40:49;5.90;53.70
8248;DHT22;4164;49.844;8.830;2023-02-28T15:43:30;6.00;54.80
8248;DHT22;4164;49.844;8.830;2023-02-28T15:46:01;6.00;54.80
8248;DHT22;4164;49.844;8.830;2023-02-28T15:48:30;5.90;54.30
8248;DHT22;4164;49.844;8.830;2023-02-28T15:51:06;6.00;55.30
8248;DHT22;4164;49.844;8.830;2023-02-28T15:53:37;5.90;54.70
8248;DHT22;4164;49.844;8.830;2023-02-28T15:59:02;5.90;53.70
8248;DHT22;4164;49.844;8.830;2023-02-28T16:01:38;5.90;54.50
8248;DHT22;4164;49.844;8.830;2023-02-28T16:04:15;5.80;53.90
8248;DHT22;4164;49.844;8.830;2023-02-28T16:09:22;5.70;55.30
8248;DHT22;4164;49.844;8.830;2023-02-28T16:11:50;5.80;55.80
8248;DHT22;4164;49.844;8.830;2023-02-28T16:14:19;5.70;55.20
8248;DHT22;4164;49.844;8.830;2023-02-28T16:16:48;5.70;55.30
8248;DHT22;4164;49.844;8.830;2023-02-28T16:19:14;5.60;56.10
8248;DHT22;4164;49.844;8.830;2023-02-28T16:21:40;5.60;55.20
8248;DHT22;4164;49.844;8.830;2023-02-28T16:24:06;5.50;56.50
8248;DHT22;4164;49.844;8.830;2023-02-28T16:26:32;5.60;55.60
8248;DHT22;4164;49.844;8.830;2023-02-28T16:29:00;5.50;55.20
8248;DHT22;4164;49.844;8.830;2023-02-28T16:31:27;5.40;55.60
8248;DHT22;4164;49.844;8.830;2023-02-28T16:33:52;5.20;54.70
8248;DHT22;4164;49.844;8.830;2023-02-28T16:36:21;5.20;55.60
8248;DHT22;4164;49.844;8.830;2023-02-28T16:38:46;5.10;56.30
8248;DHT22;4164;49.844;8.830;2023-02-28T16:41:16;5.10;56.40
8248;DHT22;4164;49.844;8.830;2023-02-28T16:43:46;5.00;57.20
8248;DHT22;4164;49.844;8.830;2023-02-28T16:46:12;5.00;58.60
8248;DHT22;4164;49.844;8.830;2023-02-28T16:48:38;4.90;57.40
8248;DHT22;4164;49.844;8.830;2023-02-28T16:51:12;4.70;57.10
8248;DHT22;4164;49.844;8.830;2023-02-28T16:53:39;4.50;57.50
8248;DHT22;4164;49.844;8.830;2023-02-28T16:56:05;4.30;57.50
8248;DHT22;4164;49.844;8.830;2023-02-28T16:58:32;4.20;57.80
8248;DHT22;4164;49.844;8.830;2023-02-28T17:01:01;4.10;58.30
8248;DHT22;4164;49.844;8.830;2023-02-28T17:03:28;4.00;59.10
8248;DHT22;4164;49.844;8.830;2023-02-28T17:05:54;3.90;60.30
8248;DHT22;4164;49.844;8.830;2023-02-28T17:08:20;3.90;59.40
8248;DHT22;4164;49.844;8.830;2023-02-28T17:10:46;3.80;60.20
8248;DHT22;4164;49.844;8.830;2023-02-28T17:13:11;3.80;60.20
8248;DHT22;4164;49.844;8.830;2023-02-28T17:15:37;3.60;60.40
8248;DHT22;4164;49.844;8.830;2023-02-28T17:18:04;3.50;61.80
8248;DHT22;4164;49.844;8.830;2023-02-28T17:20:30;3.40;62.20
8248;DHT22;4164;49.844;8.830;2023-02-28T17:22:56;3.40;63.50
8248;DHT22;4164;49.844;8.830;2023-02-28T17:25:22;3.20;63.10
8248;DHT22;4164;49.844;8.830;2023-02-28T17:27:48;3.10;63.60
8248;DHT22;4164;49.844;8.830;2023-02-28T17:30:19;3.10;64.70
8248;DHT22;4164;49.844;8.830;2023-02-28T17:32:46;3.00;64.30
8248;DHT22;4164;49.844;8.830;2023-02-28T17:35:12;3.00;65.00
8248;DHT22;4164;49.844;8.830;2023-02-28T17:37:38;3.00;66.30
8248;DHT22;4164;49.844;8.830;2023-02-28T17:40:04;2.90;64.90
8248;DHT22;4164;49.844;8.830;2023-02-28T17:42:30;2.90;66.90
8248;DHT22;4164;49.844;8.830;2023-02-28T17:44:56;2.80;67.70
8248;DHT22;4164;49.844;8.830;2023-02-28T17:47:21;2.70;67.40
8248;DHT22;4164;49.844;8.830;2023-02-28T17:49:47;2.60;68.80
8248;DHT22;4164;49.844;8.830;2023-02-28T17:52:12;2.60;68.70
8248;DHT22;4164;49.844;8.830;2023-02-28T17:54:38;2.40;69.00
8248;DHT22;4164;49.844;8.830;2023-02-28T17:57:04;2.40;70.40
8248;DHT22;4164;49.844;8.830;2023-02-28T17:59:29;2.20;70.60
8248;DHT22;4164;49.844;8.830;2023-02-28T18:01:59;2.00;70.50
8248;DHT22;4164;49.844;8.830;2023-02-28T18:04:25;1.90;72.10
8248;DHT22;4164;49.844;8.830;2023-02-28T18:06:52;1.90;72.00
8248;DHT22;4164;49.844;8.830;2023-02-28T18:09:20;1.80;71.80
8248;DHT22;4164;49.844;8.830;2023-02-28T18:11:48;1.80;72.10
8248;DHT22;4164;49.844;8.830;2023-02-28T18:14:18;1.70;72.40
8248;DHT22;4164;49.844;8.830;2023-02-28T18:16:45;1.70;72.60
8248;DHT22;4164;49.844;8.830;2023-02-28T18:19:11;1.70;72.80
8248;DHT22;4164;49.844;8.830;2023-02-28T18:21:42;1.70;73.00
8248;DHT22;4164;49.844;8.830;2023-02-28T18:24:09;1.70;72.40
8248;DHT22;4164;49.844;8.830;2023-02-28T18:26:35;1.80;73.20
8248;DHT22;4164;49.844;8.830;2023-02-28T18:29:01;1.70;74.30
8248;DHT22;4164;49.844;8.830;2023-02-28T18:31:27;1.70;74.60
8248;DHT22;4164;49.844;8.830;2023-02-28T18:33:53;1.90;73.70
8248;DHT22;4164;49.844;8.830;2023-02-28T18:36:20;1.90;73.30
8248;DHT22;4164;49.844;8.830;2023-02-28T18:38:46;1.70;74.10